Ana Sayfa
METAR-TAF:

METAR-TAF

Havaalanları :

Baia Mare, Romanya

Enlem: 47-40N, Boylam: 023-35E, yükseklik: 218 m

Güncel hava durumu gözlemi

Rapor saat 20:30 UTC de 43 dakika önce yapıldı.
Rüzgar doğudan 3 kt
Sıcaklık -7°C
Nem 86%
Basınç 1017 hPa
Görüş mesafesi: 3500 m
1900 ft yükseklikte az bulutlu
2200 ft yükseklikte parçalı bulutlu
2600 ft yükseklikte parçalı çok bulutlu
hafif kar

METAR: LRBM 162030Z AUTO 08003KT 3500 R09/1700VP2000U -SN FEW019 SCT022 BKN026 M07/M09 Q1017

Saat: 23:13 (21:13 UTC)

Tahmin

Rapor saat 14:00 UTC de 31 saat ve 13 dakika önce yapıldı.
Ayın 15'si saat 15 UTC'den ayın 16'si saat 00 UTC'ye kadar geçerli Tahmin
Rüzgar batıdan 6 kt
Görüş mesafesi 10 km veya daha fazla
1500 m altında bulut yok ve kümülonimbus yok

TAF: LRBM 151400Z 1515/1600 28006KT CAVOK

4.000'den fazla havaalanı için hava durumu gözlemleri ve tahminleri (METAR ve TAF raporları).

Kullanılabilir istasyonlar harita üzerinde sarı ve kırmızı noktalarla gösterilir.

İstasyonun adını görmek için fareyi noktanın üzerinde gezdirin.

Sonrasında hava gözlem ve tahminlerini görmek için tıklayın.

Haritayı değiştirmek için: yaklaştırmak için siyah artı işaretli yeşil düğmeye ve uzaklaştırmak için de eksi işaretli düğmeye hızla tıklayın; bitişik haritalar için yeşil okları kullanın.


METAR-TAF: